createdAt,value
2019-03-28T00:02:15.371Z,101447.98
2019-03-28T00:04:42.628Z,101443.84
2019-03-28T00:07:09.909Z,101442.41
2019-03-28T00:09:37.122Z,101439.05
2019-03-28T00:12:04.332Z,101439.49
2019-03-28T00:14:31.545Z,101438.57
2019-03-28T00:16:58.880Z,101433.73
2019-03-28T00:19:26.097Z,101434.47
2019-03-28T00:21:53.333Z,101442.67
2019-03-28T00:24:24.593Z,101433.03
2019-03-28T00:26:51.925Z,101431.70
2019-03-28T00:29:19.224Z,101429.61
2019-03-28T00:31:48.064Z,101422.38
2019-03-28T00:34:15.351Z,101422.78
2019-03-28T00:36:42.680Z,101421.27
2019-03-28T00:39:10.005Z,101415.17
2019-03-28T00:41:37.307Z,101421.00
2019-03-28T00:44:04.644Z,101413.99
2019-03-28T00:46:31.932Z,101413.33
2019-03-28T00:48:59.254Z,101415.60
2019-03-28T00:51:26.556Z,101412.81
2019-03-28T00:53:53.897Z,101417.53
2019-03-28T00:56:21.231Z,101410.75
2019-03-28T00:58:48.439Z,101419.48
2019-03-28T01:01:15.760Z,101411.37
2019-03-28T01:03:43.064Z,101409.72
2019-03-28T01:06:10.296Z,101406.86
2019-03-28T01:08:37.898Z,101406.20
2019-03-28T01:11:05.312Z,101402.41
2019-03-28T01:13:32.516Z,101400.28
2019-03-28T01:15:59.961Z,101407.56
2019-03-28T01:18:27.146Z,101397.97
2019-03-28T01:20:54.387Z,101400.93
2019-03-28T01:23:21.710Z,101404.15
2019-03-28T01:25:48.930Z,101403.56
2019-03-28T01:28:16.364Z,101398.21
2019-03-28T01:30:43.571Z,101392.02
2019-03-28T01:33:10.888Z,101396.02
2019-03-28T01:35:38.217Z,101395.56
2019-03-28T01:38:05.513Z,101395.65
2019-03-28T01:40:32.844Z,101404.08
2019-03-28T01:43:00.030Z,101401.58
2019-03-28T01:45:27.357Z,101403.01
2019-03-28T01:47:54.558Z,101406.09
2019-03-28T01:50:21.888Z,101403.45
2019-03-28T01:52:49.109Z,101399.58
2019-03-28T01:55:16.421Z,101404.47
2019-03-28T01:57:43.750Z,101406.72
2019-03-28T02:00:12.340Z,101406.78
2019-03-28T02:02:39.812Z,101406.54
2019-03-28T02:05:07.555Z,101409.95
2019-03-28T02:07:34.861Z,101410.60
2019-03-28T02:10:02.203Z,101410.77
2019-03-28T02:12:29.427Z,101409.02
2019-03-28T02:14:56.722Z,101423.19
2019-03-28T02:17:24.066Z,101413.30
2019-03-28T02:19:51.377Z,101419.15
2019-03-28T02:22:19.303Z,101426.85
2019-03-28T02:24:47.210Z,101409.86
2019-03-28T02:27:23.999Z,101410.58
2019-03-28T02:29:43.765Z,101419.17
2019-03-28T02:32:11.105Z,101410.06
2019-03-28T02:34:38.414Z,101419.13
2019-03-28T02:37:06.074Z,101414.14
2019-03-28T02:39:33.294Z,101418.91
2019-03-28T02:42:01.596Z,101423.06
2019-03-28T02:44:31.698Z,101422.08
2019-03-28T02:46:59.053Z,101418.47
2019-03-28T02:49:26.252Z,101428.99
2019-03-28T02:51:53.490Z,101422.61
2019-03-28T02:54:20.825Z,101420.84
2019-03-28T02:56:48.175Z,101421.73
2019-03-28T02:59:15.382Z,101424.63
2019-03-28T03:01:42.722Z,101429.22
2019-03-28T03:04:10.036Z,101424.31
2019-03-28T03:06:37.385Z,101422.51
2019-03-28T03:09:08.397Z,101431.59
2019-03-28T03:11:36.031Z,101427.98
2019-03-28T03:14:03.396Z,101431.70
2019-03-28T03:16:30.734Z,101431.00
2019-03-28T03:18:58.082Z,101429.01
2019-03-28T03:21:25.420Z,101441.27
2019-03-28T03:23:52.743Z,101432.19
2019-03-28T03:26:20.079Z,101427.27
2019-03-28T03:28:47.284Z,101428.23
2019-03-28T03:31:20.599Z,101437.75
2019-03-28T03:33:43.842Z,101441.27
2019-03-28T03:36:11.191Z,101447.60
2019-03-28T03:38:38.503Z,101446.59
2019-03-28T03:41:05.851Z,101448.66
2019-03-28T03:43:33.169Z,101442.71
2019-03-28T03:46:01.641Z,101444.27
2019-03-28T03:48:29.239Z,101451.13
2019-03-28T03:50:56.452Z,101454.08
2019-03-28T03:53:23.791Z,101445.88
2019-03-28T03:55:51.112Z,101449.82
2019-03-28T03:58:18.857Z,101442.73
2019-03-28T04:00:46.670Z,101448.17
2019-03-28T04:03:13.991Z,101444.23
2019-03-28T04:05:41.237Z,101447.75
2019-03-28T04:08:08.472Z,101448.41
2019-03-28T04:10:35.796Z,101451.72
2019-03-28T04:13:03.142Z,101452.94
2019-03-28T04:15:30.439Z,101411.50
2019-03-28T04:17:58.207Z,101450.09
2019-03-28T04:20:25.528Z,101457.35
2019-03-28T04:22:52.758Z,101456.94
2019-03-28T04:25:19.979Z,101459.02
2019-03-28T04:27:47.207Z,101457.94
2019-03-28T04:30:14.526Z,101461.34
2019-03-28T04:32:41.883Z,101460.33
2019-03-28T04:35:09.203Z,101462.62
2019-03-28T04:37:36.556Z,101460.55
2019-03-28T04:40:05.102Z,101463.70
2019-03-28T04:42:32.749Z,101467.97
2019-03-28T04:44:59.964Z,101460.30
2019-03-28T04:47:27.126Z,101464.98
2019-03-28T04:49:56.609Z,101462.38
2019-03-28T04:52:23.930Z,101459.73
2019-03-28T04:54:51.285Z,101512.63
2019-03-28T04:57:18.611Z,101457.79
2019-03-28T04:59:46.373Z,101462.41
2019-03-28T05:02:13.590Z,101464.77
2019-03-28T05:04:40.937Z,101461.97
2019-03-28T05:07:08.235Z,101466.36
2019-03-28T05:09:35.573Z,101470.02
2019-03-28T05:12:03.161Z,101473.25
2019-03-28T05:14:30.502Z,101476.61
2019-03-28T05:16:57.705Z,101485.88
2019-03-28T05:19:25.040Z,101484.31
2019-03-28T05:21:52.370Z,101478.66
2019-03-28T05:24:19.755Z,101477.91
2019-03-28T05:26:47.068Z,101477.30
2019-03-28T05:29:14.404Z,101484.44
2019-03-28T05:31:41.729Z,101479.16
2019-03-28T05:34:09.063Z,101487.73
2019-03-28T05:36:36.270Z,101478.27
2019-03-28T05:39:05.452Z,101477.97
2019-03-28T05:41:32.755Z,101497.20
2019-03-28T05:44:00.090Z,101482.62
2019-03-28T05:46:27.425Z,101490.85
2019-03-28T05:48:54.758Z,101486.81
2019-03-28T05:51:22.088Z,101489.59
2019-03-28T05:53:49.437Z,101496.38
2019-03-28T05:56:16.675Z,101500.53
2019-03-28T05:58:44.020Z,101498.58
2019-03-28T06:01:11.347Z,101502.17
2019-03-28T06:03:38.698Z,101501.66
2019-03-28T06:06:06.000Z,101506.22
2019-03-28T06:08:33.335Z,101505.70
2019-03-28T06:11:00.562Z,101506.94
2019-03-28T06:13:27.807Z,101504.84
2019-03-28T06:15:55.035Z,101507.44
2019-03-28T06:18:22.155Z,101513.89
2019-03-28T06:20:49.391Z,101515.79
2019-03-28T06:23:16.728Z,101522.04
2019-03-28T06:25:44.061Z,101528.70
2019-03-28T06:28:11.377Z,101526.95
2019-03-28T06:30:38.717Z,101526.65
2019-03-28T06:33:06.029Z,101529.36
2019-03-28T06:35:33.363Z,101520.52
2019-03-28T06:38:00.688Z,101528.89
2019-03-28T06:40:28.035Z,101522.55
2019-03-28T06:42:55.394Z,101529.31
2019-03-28T06:45:22.824Z,101536.80
2019-03-28T06:47:50.147Z,101538.44
2019-03-28T06:50:17.500Z,101542.20
2019-03-28T06:52:44.928Z,101539.19
2019-03-28T06:55:12.299Z,101534.59
2019-03-28T06:57:39.618Z,101535.37
2019-03-28T07:00:08.473Z,101532.79
2019-03-28T07:02:35.777Z,101535.13
2019-03-28T07:05:03.358Z,101549.10
2019-03-28T07:07:30.962Z,101541.73
2019-03-28T07:09:58.300Z,101530.37
2019-03-28T07:12:25.516Z,101528.75
2019-03-28T07:14:52.888Z,101533.24
2019-03-28T07:17:20.213Z,101527.19
2019-03-28T07:19:47.536Z,101533.38
2019-03-28T07:22:14.865Z,101526.11
2019-03-28T07:24:42.126Z,101526.83
2019-03-28T07:27:09.342Z,101521.07
2019-03-28T07:29:49.843Z,101528.41
2019-03-28T07:32:05.889Z,101524.05
2019-03-28T07:34:33.219Z,101517.79
2019-03-28T07:37:00.550Z,101512.94
2019-03-28T07:39:27.877Z,101517.16
2019-03-28T07:41:55.111Z,101521.42
2019-03-28T07:44:22.428Z,101512.51
2019-03-28T07:46:49.782Z,101516.64
2019-03-28T07:49:17.103Z,101511.55
2019-03-28T07:51:44.444Z,101514.00
2019-03-28T07:54:11.776Z,101512.58
2019-03-28T07:56:39.008Z,101513.11
2019-03-28T07:59:06.250Z,101517.81
2019-03-28T08:01:33.592Z,101522.49
2019-03-28T08:04:00.828Z,101523.02
2019-03-28T08:06:28.158Z,101528.78
2019-03-28T08:08:55.380Z,101526.80
2019-03-28T08:11:22.793Z,101532.80
2019-03-28T08:13:50.167Z,101554.17
2019-03-28T08:16:17.802Z,101536.34
2019-03-28T08:18:45.468Z,101532.45
2019-03-28T08:21:12.974Z,101539.84
2019-03-28T08:23:40.335Z,101535.77
2019-03-28T08:26:07.665Z,101546.92
2019-03-28T08:28:35.010Z,101540.89
2019-03-28T08:31:02.753Z,101540.15
2019-03-28T08:33:31.020Z,101545.66
2019-03-28T08:35:58.739Z,101548.23
2019-03-28T08:38:26.164Z,101533.08
2019-03-28T08:40:53.640Z,101541.68
2019-03-28T08:43:20.871Z,101548.94
2019-03-28T08:45:48.095Z,101554.19
2019-03-28T08:48:15.763Z,101550.88
2019-03-28T08:50:43.004Z,101543.78
2019-03-28T08:53:10.320Z,101546.06
2019-03-28T08:55:37.583Z,101548.33
2019-03-28T08:58:04.916Z,101549.00
2019-03-28T09:00:39.011Z,101544.53
2019-03-28T09:03:01.557Z,101532.53
2019-03-28T09:05:28.902Z,101541.46
2019-03-28T09:07:56.139Z,101549.45
2019-03-28T09:10:23.453Z,101545.08
2019-03-28T09:12:51.219Z,101554.16
2019-03-28T09:15:18.542Z,101545.81
2019-03-28T09:17:45.871Z,101542.00
2019-03-28T09:20:13.593Z,101553.17
2019-03-28T09:22:41.272Z,101552.24
2019-03-28T09:25:08.707Z,101539.67
2019-03-28T09:27:36.041Z,101551.97
2019-03-28T09:30:05.105Z,101553.92
2019-03-28T09:32:32.440Z,101547.84
2019-03-28T09:35:00.052Z,101547.01
2019-03-28T09:37:27.293Z,101547.43
2019-03-28T09:39:54.516Z,101536.25
2019-03-28T09:42:22.454Z,101529.53
2019-03-28T09:44:49.776Z,101536.63
2019-03-28T09:47:17.017Z,101535.99
2019-03-28T09:49:44.245Z,101540.41
2019-03-28T09:52:11.571Z,101545.38
2019-03-28T09:54:38.708Z,101533.38
2019-03-28T09:57:05.931Z,101528.13
2019-03-28T09:59:33.163Z,101535.03
2019-03-28T10:02:01.291Z,101535.59
2019-03-28T10:04:28.646Z,101525.73
2019-03-28T10:06:55.968Z,101523.39
2019-03-28T10:09:23.208Z,101516.62
2019-03-28T10:11:50.661Z,101520.23
2019-03-28T10:14:18.000Z,101528.72
2019-03-28T10:16:45.341Z,101530.20
2019-03-28T10:19:12.908Z,101533.12
2019-03-28T10:21:40.648Z,101528.69
2019-03-28T10:24:08.528Z,101517.73
2019-03-28T10:26:35.846Z,101521.04
2019-03-28T10:29:03.200Z,101520.16
2019-03-28T10:31:30.657Z,101520.70
2019-03-28T10:33:57.907Z,101536.88
2019-03-28T10:36:27.857Z,101531.75
2019-03-28T10:38:55.365Z,101524.78
2019-03-28T10:41:25.722Z,101519.27
2019-03-28T10:43:51.807Z,101530.07
2019-03-28T10:46:19.125Z,101518.36
2019-03-28T10:48:46.368Z,101524.95
2019-03-28T10:51:13.662Z,101517.63
2019-03-28T10:53:41.042Z,101515.70
2019-03-28T10:56:20.908Z,101517.14
2019-03-28T10:58:37.616Z,101524.27
2019-03-28T11:01:05.636Z,101530.97
2019-03-28T11:03:33.376Z,101521.27
2019-03-28T11:06:00.702Z,101522.38
2019-03-28T11:08:28.269Z,101530.97
2019-03-28T11:10:56.527Z,101523.59
2019-03-28T11:13:24.154Z,101537.30
2019-03-28T11:15:51.263Z,101540.31
2019-03-28T11:18:18.611Z,101544.04
2019-03-28T11:20:45.920Z,101547.78
2019-03-28T11:23:13.263Z,101551.22
2019-03-28T11:25:40.886Z,101543.42
2019-03-28T11:28:08.154Z,101543.42
2019-03-28T11:30:35.343Z,101546.06
2019-03-28T11:33:06.234Z,101550.98
2019-03-28T11:35:32.871Z,101548.74
2019-03-28T11:38:00.276Z,101551.19
2019-03-28T11:40:27.616Z,101544.05
2019-03-28T11:42:54.940Z,101550.06
2019-03-28T11:45:22.279Z,101551.00
2019-03-28T11:47:49.646Z,101555.30
2019-03-28T11:50:17.441Z,101548.27
2019-03-28T11:52:44.903Z,101555.77
2019-03-28T11:55:12.554Z,101556.80
2019-03-28T11:57:39.913Z,101547.73
2019-03-28T12:00:09.269Z,101543.81
2019-03-28T12:02:36.611Z,101553.91
2019-03-28T12:05:04.604Z,101553.63
2019-03-28T12:07:32.234Z,101548.27
2019-03-28T12:09:59.469Z,101550.64
2019-03-28T12:12:26.812Z,101553.98
2019-03-28T12:14:54.551Z,101547.69
2019-03-28T12:17:21.885Z,101555.75
2019-03-28T12:19:49.228Z,101559.66
2019-03-28T12:22:16.544Z,101556.44
2019-03-28T12:24:43.786Z,101554.23
2019-03-28T12:27:11.114Z,101556.19
2019-03-28T12:29:38.352Z,101555.83
2019-03-28T12:32:13.966Z,101553.67
2019-03-28T12:34:35.354Z,101559.80
2019-03-28T12:37:02.668Z,101555.34
2019-03-28T12:39:29.995Z,101558.68
2019-03-28T12:41:57.430Z,101552.52
2019-03-28T12:44:24.761Z,101554.30
2019-03-28T12:46:52.003Z,101551.06
2019-03-28T12:49:19.322Z,101555.03
2019-03-28T12:51:46.652Z,101554.92
2019-03-28T12:54:13.976Z,101557.65
2019-03-28T12:56:41.329Z,101553.45
2019-03-28T12:59:09.044Z,101548.52
2019-03-28T13:01:36.426Z,101527.19
2019-03-28T13:04:03.769Z,101550.61
2019-03-28T13:06:31.087Z,101546.62
2019-03-28T13:08:58.784Z,101545.54
2019-03-28T13:11:26.030Z,101548.03
2019-03-28T13:13:53.271Z,101548.03
2019-03-28T13:16:20.596Z,101545.02
2019-03-28T13:18:47.844Z,101542.37
2019-03-28T13:21:15.070Z,101550.52
2019-03-28T13:23:42.343Z,101547.80
2019-03-28T13:26:26.313Z,101548.27
2019-03-28T13:28:54.106Z,101546.71
2019-03-28T13:31:21.973Z,101549.45
2019-03-28T13:33:49.220Z,101554.56
2019-03-28T13:36:16.462Z,101554.68
2019-03-28T13:38:43.803Z,101548.73
2019-03-28T13:41:11.122Z,101552.66
2019-03-28T13:43:38.501Z,101545.53
2019-03-28T13:46:06.625Z,101547.80
2019-03-28T13:48:34.267Z,101551.81
2019-03-28T13:51:01.615Z,101547.68
2019-03-28T13:53:39.246Z,101545.78
2019-03-28T13:55:58.171Z,101553.70
2019-03-28T13:58:25.407Z,101554.64
2019-03-28T14:00:54.497Z,101564.33
2019-03-28T14:03:22.261Z,101551.23
2019-03-28T14:05:49.507Z,101550.92
2019-03-28T14:08:16.724Z,101551.91
2019-03-28T14:10:44.393Z,101546.66
2019-03-28T14:13:12.107Z,101548.84
2019-03-28T14:15:39.424Z,101549.61
2019-03-28T14:18:06.746Z,101550.66
2019-03-28T14:20:34.179Z,101549.94
2019-03-28T14:23:01.415Z,101536.55
2019-03-28T14:25:28.770Z,101539.59
2019-03-28T14:27:55.985Z,101539.36
2019-03-28T14:30:23.334Z,101530.18
2019-03-28T14:32:53.666Z,101534.55
2019-03-28T14:35:19.796Z,101533.44
2019-03-28T14:37:47.150Z,101535.59
2019-03-28T14:40:14.491Z,101536.55
2019-03-28T14:42:41.731Z,101536.17
2019-03-28T14:45:09.580Z,101533.44
2019-03-28T14:47:36.950Z,101535.05
2019-03-28T14:50:06.686Z,101522.34
2019-03-28T14:52:33.947Z,101528.87
2019-03-28T14:55:02.581Z,101525.45
2019-03-28T14:57:31.970Z,101518.48
2019-03-28T15:00:01.669Z,101518.78
2019-03-28T15:02:29.017Z,101522.98
2019-03-28T15:04:57.080Z,101520.95
2019-03-28T15:07:25.582Z,101521.83
2019-03-28T15:09:53.228Z,101521.48
2019-03-28T15:12:20.448Z,101518.34
2019-03-28T15:14:47.808Z,101523.45
2019-03-28T15:17:15.127Z,101525.34
2019-03-28T15:19:42.465Z,101518.45
2019-03-28T15:22:09.785Z,101516.25
2019-03-28T15:24:37.144Z,101511.80
2019-03-28T15:27:04.816Z,101510.77
2019-03-28T15:29:32.215Z,101520.38
2019-03-28T15:31:59.575Z,101522.78
2019-03-28T15:34:26.889Z,101518.25
2019-03-28T15:36:54.135Z,101520.95
2019-03-28T15:39:22.267Z,101517.77
2019-03-28T15:41:49.582Z,101514.89
2019-03-28T15:44:16.913Z,101522.87
2019-03-28T15:46:44.281Z,101525.02
2019-03-28T15:49:11.493Z,101525.63
2019-03-28T15:51:38.847Z,101524.33
2019-03-28T15:54:06.160Z,101522.61
2019-03-28T15:56:33.489Z,101528.91
2019-03-28T15:59:01.418Z,101524.83
2019-03-28T16:01:29.093Z,101521.60
2019-03-28T16:03:56.315Z,101525.91
2019-03-28T16:06:23.644Z,101526.25
2019-03-28T16:08:50.863Z,101520.19
2019-03-28T16:11:18.298Z,101519.13
2019-03-28T16:13:45.607Z,101515.66
2019-03-28T16:16:12.985Z,101529.06
2019-03-28T16:18:40.307Z,101525.89
2019-03-28T16:21:07.650Z,101526.92
2019-03-28T16:23:34.885Z,101532.25
2019-03-28T16:26:02.258Z,101529.86
2019-03-28T16:28:32.379Z,101527.98
2019-03-28T16:31:00.146Z,101529.22
2019-03-28T16:33:27.544Z,101530.61
2019-03-28T16:35:54.886Z,101532.80
2019-03-28T16:38:22.204Z,101534.87
2019-03-28T16:40:49.546Z,101527.97
2019-03-28T16:43:16.869Z,101530.97
2019-03-28T16:45:44.362Z,101525.12
2019-03-28T16:48:11.680Z,101523.60
2019-03-28T16:50:39.357Z,101526.91
2019-03-28T16:53:06.670Z,101527.75
2019-03-28T16:55:34.020Z,101526.03
2019-03-28T16:58:01.340Z,101526.70
2019-03-28T17:00:38.122Z,101531.55
2019-03-28T17:03:07.123Z,101524.32
2019-03-28T17:05:34.917Z,101529.53
2019-03-28T17:08:02.932Z,101532.08
2019-03-28T17:10:41.360Z,101533.76
2019-03-28T17:13:08.704Z,101537.02
2019-03-28T17:15:36.067Z,101538.36
2019-03-28T17:18:03.424Z,101536.65
2019-03-28T17:20:30.750Z,101533.79
2019-03-28T17:22:58.094Z,101537.98
2019-03-28T17:25:25.447Z,101536.04
2019-03-28T17:27:52.913Z,101548.23
2019-03-28T17:30:20.227Z,101540.59
2019-03-28T17:32:47.571Z,101538.28
2019-03-28T17:35:16.101Z,101539.59
2019-03-28T17:37:43.455Z,101537.63
2019-03-28T17:40:10.779Z,101538.75
2019-03-28T17:42:38.028Z,101538.55
2019-03-28T17:45:05.667Z,101541.09
2019-03-28T17:47:33.023Z,101538.75
2019-03-28T17:50:00.370Z,101534.66
2019-03-28T17:52:29.997Z,101543.41
2019-03-28T17:54:57.483Z,101535.05
2019-03-28T17:57:24.852Z,101549.52
2019-03-28T17:59:52.162Z,101547.40
2019-03-28T18:02:19.522Z,101537.55
2019-03-28T18:04:48.320Z,101541.64
2019-03-28T18:07:15.772Z,101543.20
2019-03-28T18:09:43.129Z,101537.16
2019-03-28T18:12:10.471Z,101537.16
2019-03-28T18:14:37.787Z,101541.53
2019-03-28T18:17:05.145Z,101539.58
2019-03-28T18:19:32.471Z,101542.44
2019-03-28T18:22:03.830Z,101547.62
2019-03-28T18:24:30.620Z,101543.06
2019-03-28T18:26:57.980Z,101542.79
2019-03-28T18:29:25.603Z,101539.70
2019-03-28T18:31:53.169Z,101544.38
2019-03-28T18:34:20.545Z,101548.34
2019-03-28T18:36:47.886Z,101543.58
2019-03-28T18:39:15.531Z,101551.89
2019-03-28T18:41:43.064Z,101546.13
2019-03-28T18:44:11.520Z,101564.63
2019-03-28T18:46:39.642Z,101546.78
2019-03-28T18:49:06.980Z,101547.05
2019-03-28T18:51:34.523Z,101554.48
2019-03-28T18:54:03.582Z,101554.48
2019-03-28T18:56:31.433Z,101551.67
2019-03-28T18:58:59.459Z,101554.33
2019-03-28T19:01:27.093Z,101552.70
2019-03-28T19:03:55.769Z,101553.64
2019-03-28T19:06:23.657Z,101552.55
2019-03-28T19:08:50.893Z,101547.30
2019-03-28T19:11:19.597Z,101538.69
2019-03-28T19:13:46.963Z,101532.32
2019-03-28T19:16:14.288Z,101538.87
2019-03-28T19:18:41.629Z,101538.58
2019-03-28T19:21:08.869Z,101545.98
2019-03-28T19:23:36.238Z,101544.64
2019-03-28T19:26:03.538Z,101549.71
2019-03-28T19:28:30.884Z,101550.80
2019-03-28T19:30:58.203Z,101551.53
2019-03-28T19:33:25.548Z,101556.81
2019-03-28T19:35:53.488Z,101550.80
2019-03-28T19:38:21.006Z,101562.58
2019-03-28T19:40:48.366Z,101565.94
2019-03-28T19:43:20.906Z,101566.83
2019-03-28T19:45:44.957Z,101566.30
2019-03-28T19:48:12.316Z,101566.91
2019-03-28T19:50:39.916Z,101553.15
2019-03-28T19:53:07.254Z,101559.91
2019-03-28T19:55:34.904Z,101557.03
2019-03-28T19:58:02.337Z,101555.77
2019-03-28T20:00:31.205Z,101557.05
2019-03-28T20:03:00.567Z,101558.35
2019-03-28T20:05:28.471Z,101556.30
2019-03-28T20:07:58.095Z,101568.44
2019-03-28T20:10:26.646Z,101559.99
2019-03-28T20:12:55.201Z,101553.44
2019-03-28T20:15:22.626Z,101563.10
2019-03-28T20:17:49.956Z,101561.37
2019-03-28T20:20:18.217Z,101569.22
2019-03-28T20:22:45.517Z,101570.83
2019-03-28T20:25:12.960Z,101563.22
2019-03-28T20:27:40.294Z,101534.86
2019-03-28T20:30:09.070Z,101569.91
2019-03-28T20:32:37.840Z,101608.91
2019-03-28T20:35:10.561Z,101570.08
2019-03-28T20:37:38.270Z,101578.05
2019-03-28T20:40:06.039Z,101570.03
2019-03-28T20:42:33.351Z,101581.39
2019-03-28T20:45:02.987Z,101583.08
2019-03-28T20:47:30.354Z,101580.70
2019-03-28T20:49:57.904Z,101572.81
2019-03-28T20:52:25.226Z,101577.72
2019-03-28T20:54:52.708Z,101579.23
2019-03-28T20:57:23.562Z,101565.38
2019-03-28T20:59:50.909Z,101565.38
2019-03-28T21:02:19.221Z,101573.84
2019-03-28T21:04:46.777Z,101572.30
2019-03-28T21:07:16.337Z,101572.99
2019-03-28T21:09:44.733Z,101572.02
2019-03-28T21:12:12.045Z,101572.37
2019-03-28T21:14:41.013Z,101577.14
2019-03-28T21:17:09.104Z,101573.20
2019-03-28T21:19:37.388Z,101588.59
2019-03-28T21:22:06.143Z,101571.09
2019-03-28T21:24:33.782Z,101565.61
2019-03-28T21:27:01.103Z,101569.77
2019-03-28T21:29:28.448Z,101570.20
2019-03-28T21:31:55.765Z,101573.60
2019-03-28T21:34:24.261Z,101576.02
2019-03-28T21:36:51.601Z,101575.07
2019-03-28T21:39:20.100Z,101570.98
2019-03-28T21:41:47.342Z,101569.19
2019-03-28T21:44:14.561Z,101576.99
2019-03-28T21:46:41.924Z,101576.95
2019-03-28T21:49:09.273Z,101580.05
2019-03-28T21:51:36.909Z,101578.45
2019-03-28T21:54:05.182Z,101579.16
2019-03-28T21:56:32.695Z,101584.63
2019-03-28T21:59:00.032Z,101582.05
2019-03-28T22:01:27.376Z,101576.62
2019-03-28T22:03:54.992Z,101580.45
2019-03-28T22:06:23.150Z,101578.12
2019-03-28T22:08:50.556Z,101582.75
2019-03-28T22:11:17.892Z,101584.62
2019-03-28T22:13:46.128Z,101577.77
2019-03-28T22:16:13.473Z,101578.69
2019-03-28T22:18:40.692Z,101582.42
2019-03-28T22:21:08.047Z,101588.30
2019-03-28T22:23:35.295Z,101587.53
2019-03-28T22:26:02.724Z,101591.73
2019-03-28T22:28:30.403Z,101587.61
2019-03-28T22:30:57.736Z,101589.34
2019-03-28T22:33:25.180Z,101590.20
2019-03-28T22:35:52.874Z,101589.31
2019-03-28T22:38:21.397Z,101583.69
2019-03-28T22:40:48.997Z,101591.28
2019-03-28T22:43:17.292Z,101583.30
2019-03-28T22:45:44.615Z,101583.81
2019-03-28T22:48:13.095Z,101474.20
2019-03-28T22:50:41.782Z,101580.98
2019-03-28T22:53:09.374Z,101581.50
2019-03-28T22:55:36.731Z,101582.42
2019-03-28T22:58:04.268Z,101587.36
2019-03-28T23:00:51.589Z,101585.08
2019-03-28T23:03:18.921Z,101582.89
2019-03-28T23:05:46.259Z,101583.28
2019-03-28T23:08:13.577Z,101581.53
2019-03-28T23:10:40.921Z,101581.06
2019-03-28T23:13:08.241Z,101631.17
2019-03-28T23:15:37.137Z,101579.55
2019-03-28T23:18:04.661Z,101581.89
2019-03-28T23:20:33.698Z,101580.09
2019-03-28T23:23:01.793Z,101589.36
2019-03-28T23:25:29.156Z,101582.57
2019-03-28T23:27:56.907Z,101588.36
2019-03-28T23:30:24.254Z,101583.60
2019-03-28T23:32:51.580Z,101585.84
2019-03-28T23:35:18.941Z,101581.33
2019-03-28T23:37:46.529Z,101578.36
2019-03-28T23:40:13.863Z,101585.38
2019-03-28T23:42:41.112Z,101585.69
2019-03-28T23:45:10.781Z,101587.20
2019-03-28T23:47:38.170Z,101583.47
2019-03-28T23:50:06.983Z,101580.57
2019-03-28T23:52:34.340Z,101579.34
2019-03-28T23:55:01.697Z,101581.51
2019-03-28T23:57:29.153Z,101581.78
2019-03-28T23:59:56.367Z,101592.49
